地図

経路データ

SID SEASON NUMBER BASIN SUBBASIN NAME ISO_TIME NATURE LAT LON WMO_WIND WMO_PRES WMO_AGENCY TRACK_TYPE DIST2LAND LANDFALL IFLAG USA_AGENCY USA_ATCF_ID USA_LAT USA_LON USA_RECORD USA_STATUS USA_WIND USA_PRES USA_SSHS USA_R34_NE USA_R34_SE USA_R34_SW USA_R34_NW USA_R50_NE USA_R50_SE USA_R50_SW USA_R50_NW USA_R64_NE USA_R64_SE USA_R64_SW USA_R64_NW USA_POCI USA_ROCI USA_RMW USA_EYE TOKYO_LAT TOKYO_LON TOKYO_GRADE TOKYO_WIND TOKYO_PRES TOKYO_R50_DIR TOKYO_R50_LONG TOKYO_R50_SHORT TOKYO_R30_DIR TOKYO_R30_LONG TOKYO_R30_SHORT TOKYO_LAND CMA_LAT CMA_LON CMA_CAT CMA_WIND CMA_PRES HKO_LAT HKO_LON HKO_CAT HKO_WIND HKO_PRES NEWDELHI_LAT NEWDELHI_LON NEWDELHI_GRADE NEWDELHI_WIND NEWDELHI_PRES NEWDELHI_CI NEWDELHI_DP NEWDELHI_POCI REUNION_LAT REUNION_LON REUNION_TYPE REUNION_WIND REUNION_PRES REUNION_TNUM REUNION_CI REUNION_RMW REUNION_R34_NE REUNION_R34_SE REUNION_R34_SW REUNION_R34_NW REUNION_R50_NE REUNION_R50_SE REUNION_R50_SW REUNION_R50_NW REUNION_R64_NE REUNION_R64_SE REUNION_R64_SW REUNION_R64_NW BOM_LAT BOM_LON BOM_TYPE BOM_WIND BOM_PRES BOM_TNUM BOM_CI BOM_RMW BOM_R34_NE BOM_R34_SE BOM_R34_SW BOM_R34_NW BOM_R50_NE BOM_R50_SE BOM_R50_SW BOM_R50_NW BOM_R64_NE BOM_R64_SE BOM_R64_SW BOM_R64_NW BOM_ROCI BOM_POCI BOM_EYE BOM_POS_METHOD BOM_PRES_METHOD NADI_LAT NADI_LON NADI_CAT NADI_WIND NADI_PRES WELLINGTON_LAT WELLINGTON_LON WELLINGTON_WIND WELLINGTON_PRES DS824_LAT DS824_LON DS824_STAGE DS824_WIND DS824_PRES TD9636_LAT TD9636_LON TD9636_STAGE TD9636_WIND TD9636_PRES TD9635_LAT TD9635_LON TD9635_WIND TD9635_PRES TD9635_ROCI NEUMANN_LAT NEUMANN_LON NEUMANN_CLASS NEUMANN_WIND NEUMANN_PRES MLC_LAT MLC_LON MLC_CLASS MLC_WIND MLC_PRES USA_GUST BOM_GUST BOM_GUST_PER REUNION_GUST REUNION_GUST_PER USA_SEAHGT USA_SEARAD_NE USA_SEARAD_SE USA_SEARAD_SW USA_SEARAD_NW STORM_SPEED STORM_DIR
1944231N19089 1944 50 NI BB NOT_NAMED 1944-08-18 00:00:00 TS 18.9000 89.0000 main 287 263 _________O____ -1 18.9000 89.0000 TC 30 3 293
1944231N19089 1944 50 NI BB NOT_NAMED 1944-08-18 03:00:00 TS 18.9667 88.8334 main 263 239 _________PO___ -1 19.0001 88.7501 TC 30 18.9000 89.0000 1 4 293
1944231N19089 1944 50 NI BB NOT_NAMED 1944-08-18 06:00:00 TS 19.0622 88.5884 main 239 216 _________OP___ -1 19.1000 88.5000 TC 30 19.0055 88.7209 1 5 292
1944231N19089 1944 50 NI BB NOT_NAMED 1944-08-18 09:00:00 TS 19.1608 88.3371 main 207 191 _________PP___ -1 19.2000 88.2500 TC 30 19.1086 88.4533 1 5 293
1944231N19089 1944 50 NI BB NOT_NAMED 1944-08-18 12:00:00 TS 19.2537 88.1045 main 184 168 _________OP___ -1 19.3000 88.0000 TC 30 19.2074 88.2090 1 5 293
1944231N19089 1944 50 NI BB NOT_NAMED 1944-08-18 15:00:00 TS 19.3500 87.8750 main 168 145 _________PO___ -1 19.4000 87.7500 TC 33 19.3000 88.0000 1 5 294
1944231N19089 1944 50 NI BB NOT_NAMED 1944-08-18 18:00:00 TS 19.4433 87.6632 main 145 122 _________OP___ -1 19.5000 87.5000 TC 37 19.3866 87.8264 1 4 296
1944231N19089 1944 50 NI BB NOT_NAMED 1944-08-18 21:00:00 TS 19.5300 87.4792 main 122 94 _________PP___ -1 19.5845 87.3172 TC 41 19.4754 87.6412 1 5 294
1944231N19089 1944 50 NI BB NOT_NAMED 1944-08-19 00:00:00 TS 19.6383 87.1927 main 94 38 _________OP___ -1 19.7000 87.0000 TC 45 19.5766 87.3855 1 8 290
1944231N19089 1944 50 NI BB NOT_NAMED 1944-08-19 03:00:00 TS 19.7964 86.6876 main 38 0 _________PO___ -1 19.8927 86.3752 TC 41 19.7000 87.0000 3 12 287
1944231N19089 1944 50 NI BB NOT_NAMED 1944-08-19 06:00:00 TS 19.9798 85.9879 main 0 0 _________OP___ -1 20.1000 85.6000 TC 37 19.8596 86.3759 3 14 284
1944231N19089 1944 50 NI BB NOT_NAMED 1944-08-19 09:00:00 TS 20.1479 85.2230 main 0 0 _________PP___ -1 20.2577 84.8199 TC 33 20.0380 85.6262 3 15 283
1944231N19089 1944 50 NI BB NOT_NAMED 1944-08-19 12:00:00 TS 20.3110 84.4691 main 0 0 _________OP___ -1 20.4000 84.1000 TC 30 20.2221 84.8382 3 13 284
1944231N19089 1944 50 NI BB NOT_NAMED 1944-08-19 15:00:00 TS 20.4747 83.8312 main 0 0 _________PO___ -1 20.5495 83.5623 TC 30 20.4000 84.1000 1 11 286
1944231N19089 1944 50 NI BB NOT_NAMED 1944-08-19 18:00:00 TS 20.6322 83.2993 main 0 0 _________OP___ -1 20.7000 83.1000 TC 30 20.5644 83.4985 1 10 288
1944231N19089 1944 50 NI BB NOT_NAMED 1944-08-19 21:00:00 TS 20.7895 82.7674 main 0 0 _________PP___ -1 20.8576 82.5701 TC 30 20.7215 82.9648 1 10 288
1944231N19089 1944 50 NI BB NOT_NAMED 1944-08-20 00:00:00 TS 20.9339 82.2993 main 0 0 _________OP___ -1 21.0000 82.1000 TC 30 20.8679 82.4987 1 8 289
1944231N19089 1944 50 NI BB NOT_NAMED 1944-08-20 03:00:00 TS 21.0536 81.9312 main 0 0 _________PO___ -1 21.1073 81.7624 TC 30 21.0000 82.1000 1 7 289
1944231N19089 1944 50 NI BB NOT_NAMED 1944-08-20 06:00:00 TS 21.1527 81.6278 main 0 0 _________OP___ -1 21.2000 81.5000 TC 30 21.1055 81.7557 1 6 290
1944231N19089 1944 50 NI BB NOT_NAMED 1944-08-20 09:00:00 TS 21.2457 81.3583 main 0 0 _________PP___ -1 21.2924 81.2424 TC 30 21.1990 81.4743 1 5 292
1944231N19089 1944 50 NI BB NOT_NAMED 1944-08-20 12:00:00 TS 21.3466 81.1154 main 0 0 _________OP___ -1 21.4000 81.0000 TC 30 21.2931 81.2308 1 5 297
1944231N19089 1944 50 NI BB NOT_NAMED 1944-08-20 15:00:00 TS 21.4712 80.8750 main 0 0 _________PO___ -1 21.5425 80.7500 TC 30 21.4000 81.0000 1 5 301
1944231N19089 1944 50 NI BB NOT_NAMED 1944-08-20 18:00:00 TS 21.6177 80.6254 main 0 0 _________OP___ -1 21.7000 80.5000 TC 30 21.5354 80.7508 1 5 303
1944231N19089 1944 50 NI BB NOT_NAMED 1944-08-20 21:00:00 TS 21.7673 80.3824 main 0 0 _________PP___ -1 21.8499 80.2574 TC 30 21.6846 80.5073 1 6 303
1944231N19089 1944 50 NI BB NOT_NAMED 1944-08-21 00:00:00 TS 21.9208 80.1301 main 0 0 _________OP___ -1 22.0000 80.0000 TC 30 21.8416 80.2601 1 6 302
1944231N19089 1944 50 NI BB NOT_NAMED 1944-08-21 03:00:00 TS 22.0750 79.8537 main 0 0 _________PO___ -1 22.1500 79.7075 TC 30 22.0000 80.0000 1 6 299
1944231N19089 1944 50 NI BB NOT_NAMED 1944-08-21 06:00:00 TS 22.2251 79.5491 main 0 0 _________OP___ -1 22.3000 79.4000 TC 30 22.1501 79.6981 1 6 298
1944231N19089 1944 50 NI BB NOT_NAMED 1944-08-21 09:00:00 TS 22.3751 79.2350 main 0 0 _________PP___ -1 22.4500 79.0850 TC 30 22.3002 79.3850 1 6 298
1944231N19089 1944 50 NI BB NOT_NAMED 1944-08-21 12:00:00 TS 22.5251 78.9397 main 0 0 _________OP___ -1 22.6000 78.8000 TC 30 22.4502 79.0794 1 6 301
1944231N19089 1944 50 NI BB NOT_NAMED 1944-08-21 15:00:00 TS 22.6750 78.6925 main 0 0 _________PO___ -1 22.7499 78.5849 TC 30 22.6000 78.8000 1 5 304
1944231N19089 1944 50 NI BB NOT_NAMED 1944-08-21 18:00:00 TS 22.8065 78.4933 main 0 0 _________OP___ -1 22.9000 78.4000 TC 30 22.7130 78.5866 1 4 305
1944231N19089 1944 50 NI BB NOT_NAMED 1944-08-21 21:00:00 TS 22.9259 78.3067 main 0 0 _________PP___ -1 23.0199 78.2147 TC 30 22.8319 78.3986 1 5 309
1944231N19089 1944 50 NI BB NOT_NAMED 1944-08-22 00:00:00 TS 23.0924 78.1057 main 0 0 _________OP___ -1 23.2000 78.0000 TC 30 22.9849 78.2114 1 6 316
1944231N19089 1944 50 NI AS NOT_NAMED 1944-08-22 03:00:00 TS 23.3563 77.8575 main 0 0 _________PO___ -1 23.5125 77.7151 TC 30 23.2000 78.0000 1 8 321
1944231N19089 1944 50 NI AS NOT_NAMED 1944-08-22 06:00:00 TS 23.7093 77.5587 main 0 0 _________OP___ -1 23.9000 77.4000 TC 30 23.5187 77.7173 1 9 323
1944231N19089 1944 50 NI AS NOT_NAMED 1944-08-22 09:00:00 TS 24.1027 77.2505 main 0 0 _________PP___ -1 24.3075 77.0925 TC 30 23.8979 77.4086 1 10 325
1944231N19089 1944 50 NI AS NOT_NAMED 1944-08-22 12:00:00 TS 24.5015 76.9477 main 0 0 _________OP___ -1 24.7000 76.8000 TC 30 24.3031 77.0954 1 9 325
1944231N19089 1944 50 NI AS NOT_NAMED 1944-08-22 15:00:00 TS 24.8537 76.6674 main 0 0 _________PO___ -1 25.0074 76.5347 TC 30 24.7000 76.8000 1 8 325
1944231N19089 1944 50 NI AS NOT_NAMED 1944-08-22 18:00:00 TS 25.1640 76.4370 main 0 0 _________OP___ -1 25.3000 76.3000 TC 30 25.0620 76.5397 1 8 328
1944231N19089 1944 50 NI AS NOT_NAMED 1944-08-22 21:00:00 TS 25.4894 76.2230 main 0 0 _________PP___ -1 25.6350 76.0928 TC 30 25.3923 76.3098 1 7 330
1944231N19089 1944 50 NI AS NOT_NAMED 1944-08-23 00:00:00 TS 25.8010 76.0334 main 0 0 _________OP___ -1 26.0000 75.9000 TC 30 25.7015 76.1001 1 6 330
1944231N19089 1944 50 NI AS NOT_NAMED 1944-08-23 03:00:00 NR 26.0000 75.9000 main 0 __________O___ -1 TC 26.0000 75.9000 1 5 330

IBTrACS Databaseについて

本データベースは、米国NOAAが公開する1842年以降の世界の熱帯低気圧のベストトラックデータアーカイブInternational Best Track Archive for Climate Stewardship (IBTrACS)を、ウェブで閲覧しやすい形式に変換したものです。

最終更新日:2021-10-27